createdAt,value
2022-12-15T01:43:44.198Z,14.97
2022-12-15T01:45:58.190Z,14.48
2022-12-15T01:49:43.112Z,12.75
2022-12-15T01:53:27.706Z,28.52
2022-12-15T01:55:36.445Z,29.27
2022-12-15T01:57:43.785Z,28.85
2022-12-15T01:59:54.496Z,30.65
2022-12-15T02:02:01.545Z,28.45
2022-12-15T02:04:09.321Z,27.70
2022-12-15T02:06:17.423Z,29.45
2022-12-15T02:08:26.650Z,28.70
2022-12-15T02:10:58.151Z,27.00
2022-12-15T02:13:14.808Z,27.60
2022-12-15T02:15:29.209Z,25.15
2022-12-15T02:17:44.343Z,23.77
2022-12-15T02:20:27.143Z,23.25
2022-12-15T02:22:49.837Z,20.00
2022-12-15T02:25:12.789Z,19.00
2022-12-15T02:27:51.354Z,20.92
2022-12-15T02:30:29.053Z,20.13
2022-12-15T02:32:41.355Z,19.83
2022-12-15T02:34:54.017Z,20.27
2022-12-15T02:37:04.881Z,21.40
2022-12-15T02:39:14.418Z,21.02
2022-12-15T02:41:40.342Z,21.38
2022-12-15T02:43:47.263Z,20.13
2022-12-15T02:46:09.675Z,22.10
2022-12-15T02:48:30.709Z,20.88
2022-12-15T02:50:56.631Z,21.70
2022-12-15T02:53:14.717Z,20.50
2022-12-15T02:55:30.039Z,20.10
2022-12-15T02:57:45.056Z,19.90
2022-12-15T03:00:00.080Z,21.00
2022-12-15T03:02:10.628Z,20.30
2022-12-15T03:04:18.992Z,21.38
2022-12-15T03:06:27.708Z,20.33
2022-12-15T03:08:35.199Z,20.17
2022-12-15T03:10:42.223Z,19.58
2022-12-15T03:12:49.253Z,18.90
2022-12-15T03:14:56.537Z,19.83
2022-12-15T03:17:03.464Z,18.55
2022-12-15T03:19:12.649Z,20.05
2022-12-15T03:21:19.771Z,20.20
2022-12-15T03:23:27.236Z,19.20
2022-12-15T03:25:34.392Z,19.13
2022-12-15T03:27:41.674Z,19.17
2022-12-15T03:29:48.600Z,19.65
2022-12-15T03:31:56.023Z,19.27
2022-12-15T03:34:03.167Z,18.85
2022-12-15T03:36:13.167Z,18.33
2022-12-15T03:38:20.095Z,18.55
2022-12-15T03:40:27.323Z,18.63
2022-12-15T03:42:52.270Z,18.60
2022-12-15T03:44:59.860Z,17.95
2022-12-15T03:47:07.094Z,18.80
2022-12-15T03:49:14.273Z,16.63
2022-12-15T03:51:22.995Z,17.58
2022-12-15T03:53:30.696Z,17.60
2022-12-15T03:55:37.923Z,16.67
2022-12-15T03:57:45.155Z,16.92
2022-12-15T03:59:52.232Z,14.98
2022-12-15T04:01:59.753Z,14.15
2022-12-15T04:04:07.208Z,14.20
2022-12-15T04:06:14.337Z,13.43
2022-12-15T04:08:27.717Z,14.38
2022-12-15T04:10:36.338Z,14.00
2022-12-15T04:12:43.356Z,14.07
2022-12-15T04:14:50.337Z,14.40
2022-12-15T04:16:57.344Z,14.25
2022-12-15T04:19:20.469Z,13.90
2022-12-15T04:21:27.600Z,14.38
2022-12-15T04:23:36.317Z,15.32
2022-12-15T04:25:59.721Z,14.63
2022-12-15T04:28:23.244Z,14.50
2022-12-15T04:30:46.866Z,14.52
2022-12-15T04:33:10.580Z,15.25
2022-12-15T04:35:34.657Z,15.20
2022-12-15T04:37:58.529Z,14.10
2022-12-15T04:40:25.017Z,14.70
2022-12-15T04:42:49.806Z,14.93
2022-12-15T04:45:20.595Z,15.18
2022-12-15T04:47:44.617Z,13.63
2022-12-15T04:50:08.187Z,13.90
2022-12-15T04:52:32.929Z,14.82
2022-12-15T04:54:56.598Z,13.73
2022-12-15T04:57:22.209Z,14.88
2022-12-15T04:59:45.829Z,14.38
2022-12-15T05:02:09.976Z,13.20
2022-12-15T05:04:33.651Z,14.00
2022-12-15T05:06:57.239Z,14.02
2022-12-15T05:09:20.701Z,13.77
2022-12-15T05:11:44.218Z,14.13
2022-12-15T05:14:09.574Z,14.07
2022-12-15T05:16:33.509Z,11.95
2022-12-15T05:18:56.915Z,13.85
2022-12-15T05:21:21.039Z,14.35
2022-12-15T05:23:44.603Z,14.15
2022-12-15T05:26:08.429Z,13.68
2022-12-15T05:28:31.330Z,13.55
2022-12-15T05:30:56.593Z,13.38
2022-12-15T05:33:08.372Z,14.23
2022-12-15T05:35:15.656Z,13.45
2022-12-15T05:37:22.633Z,12.63
2022-12-15T05:39:29.914Z,13.55
2022-12-15T05:41:36.843Z,12.60
2022-12-15T05:43:44.074Z,12.07
2022-12-15T05:45:52.928Z,13.85
2022-12-15T05:48:00.538Z,11.70
2022-12-15T05:50:07.718Z,11.82
2022-12-15T05:52:14.950Z,12.10
2022-12-15T05:54:22.908Z,12.57
2022-12-15T05:56:31.723Z,13.15
2022-12-15T05:58:44.607Z,13.00
2022-12-15T06:00:54.278Z,12.35
2022-12-15T06:03:02.285Z,12.60
2022-12-15T06:05:10.713Z,12.55
2022-12-15T06:07:17.662Z,11.98
2022-12-15T06:09:24.951Z,12.20
2022-12-15T06:11:32.332Z,11.10
2022-12-15T06:13:39.515Z,12.02
2022-12-15T06:15:46.451Z,12.02
2022-12-15T06:17:56.898Z,11.52
2022-12-15T06:20:03.877Z,12.18
2022-12-15T06:22:11.567Z,12.23
2022-12-15T06:24:18.955Z,10.73
2022-12-15T06:26:27.518Z,10.98
2022-12-15T06:28:34.802Z,11.55
2022-12-15T06:30:41.677Z,11.40
2022-12-15T06:32:50.013Z,10.20
2022-12-15T06:34:58.806Z,11.35
2022-12-15T06:37:06.091Z,10.90
2022-12-15T06:39:16.137Z,11.82
2022-12-15T06:41:24.855Z,11.32
2022-12-15T06:43:32.224Z,10.70
2022-12-15T06:45:39.628Z,11.63
2022-12-15T06:47:46.810Z,11.32
2022-12-15T06:49:53.889Z,11.65
2022-12-15T06:52:02.606Z,12.40
2022-12-15T06:54:09.943Z,11.77
2022-12-15T06:56:22.455Z,11.27
2022-12-15T06:58:32.906Z,11.80
2022-12-15T07:00:40.397Z,12.38
2022-12-15T07:02:49.997Z,12.35
2022-12-15T07:04:57.625Z,13.82
2022-12-15T07:07:06.550Z,13.57
2022-12-15T07:09:19.515Z,12.23
2022-12-15T07:11:27.261Z,12.20
2022-12-15T07:13:34.473Z,12.50
2022-12-15T07:15:42.644Z,11.82
2022-12-15T07:17:49.676Z,11.23
2022-12-15T07:19:57.061Z,12.50
2022-12-15T07:22:05.984Z,11.45
2022-12-15T07:24:15.214Z,13.07
2022-12-15T07:26:22.206Z,11.80
2022-12-15T07:28:29.716Z,11.75
2022-12-15T07:30:39.090Z,11.45
2022-12-15T07:32:50.328Z,11.50
2022-12-15T07:34:57.573Z,11.68
2022-12-15T07:37:06.599Z,11.32
2022-12-15T07:39:13.574Z,11.73
2022-12-15T07:41:21.260Z,11.82
2022-12-15T07:43:28.485Z,11.80
2022-12-15T07:45:35.973Z,10.98
2022-12-15T07:47:43.222Z,11.32
2022-12-15T07:49:50.560Z,11.80
2022-12-15T07:52:00.298Z,11.30
2022-12-15T07:54:09.431Z,11.40
2022-12-15T07:56:16.407Z,11.50
2022-12-15T07:58:23.688Z,12.82
2022-12-15T08:00:30.921Z,11.65
2022-12-15T08:02:38.262Z,11.65
2022-12-15T08:04:45.335Z,12.00
2022-12-15T08:06:52.516Z,11.48
2022-12-15T08:08:59.853Z,11.55
2022-12-15T08:11:10.825Z,11.10
2022-12-15T08:14:00.236Z,11.57
2022-12-15T08:15:45.616Z,11.48
2022-12-15T08:17:52.700Z,11.00
2022-12-15T08:20:03.432Z,12.18
2022-12-15T08:22:16.069Z,11.77
2022-12-15T08:24:24.173Z,12.13
2022-12-15T08:26:32.940Z,11.50
2022-12-15T08:28:41.094Z,12.35
2022-12-15T08:30:48.020Z,12.40
2022-12-15T08:32:55.151Z,12.70
2022-12-15T08:35:02.075Z,12.27
2022-12-15T08:37:09.515Z,12.10
2022-12-15T08:39:16.393Z,11.90
2022-12-15T08:41:25.668Z,12.30
2022-12-15T08:43:34.653Z,13.75
2022-12-15T08:45:45.010Z,15.25
2022-12-15T08:47:52.078Z,14.00
2022-12-15T08:49:59.367Z,12.70
2022-12-15T08:52:06.338Z,12.00
2022-12-15T08:54:13.623Z,11.93
2022-12-15T08:56:23.265Z,11.68
2022-12-15T08:58:30.347Z,12.75
2022-12-15T09:00:39.009Z,12.60
2022-12-15T09:02:46.811Z,12.20
2022-12-15T09:04:53.914Z,11.85
2022-12-15T09:07:01.320Z,11.00
2022-12-15T09:09:10.555Z,11.90
2022-12-15T09:11:18.022Z,12.48
2022-12-15T09:13:25.118Z,11.20
2022-12-15T09:16:00.197Z,11.88
2022-12-15T09:18:01.099Z,11.52
2022-12-15T09:20:10.915Z,12.20
2022-12-15T09:22:20.316Z,12.65
2022-12-15T09:24:34.594Z,12.75
2022-12-15T09:26:43.743Z,12.00
2022-12-15T09:28:51.093Z,12.55
2022-12-15T09:30:58.500Z,12.73
2022-12-15T09:33:07.180Z,12.70
2022-12-15T09:35:14.618Z,11.43
2022-12-15T09:37:21.633Z,12.00
2022-12-15T09:39:28.985Z,12.20
2022-12-15T09:41:37.750Z,12.00
2022-12-15T09:43:50.973Z,12.40
2022-12-15T09:46:05.740Z,13.40
2022-12-15T09:48:21.209Z,12.50
2022-12-15T09:50:33.255Z,11.63
2022-12-15T09:52:50.112Z,12.95
2022-12-15T09:54:57.498Z,11.93
2022-12-15T09:57:10.877Z,12.30
2022-12-15T09:59:28.452Z,12.20
2022-12-15T10:01:41.971Z,12.18
2022-12-15T10:03:59.344Z,12.85
2022-12-15T10:06:16.460Z,12.35
2022-12-15T10:08:26.312Z,12.77
2022-12-15T10:10:37.997Z,12.63
2022-12-15T10:12:57.807Z,13.25
2022-12-15T10:15:20.060Z,12.68
2022-12-15T10:17:28.939Z,12.55
2022-12-15T10:19:43.385Z,13.13
2022-12-15T10:21:51.437Z,13.20
2022-12-15T10:24:04.730Z,13.25
2022-12-15T10:26:23.924Z,12.55
2022-12-15T10:28:55.426Z,13.52
2022-12-15T10:31:05.965Z,12.63
2022-12-15T10:33:22.027Z,13.30
2022-12-15T10:35:34.182Z,13.57
2022-12-15T10:39:50.323Z,12.93
2022-12-15T10:42:16.199Z,15.35
2022-12-15T10:44:32.247Z,13.75
2022-12-15T10:46:39.527Z,13.82
2022-12-15T10:51:24.914Z,14.30
2022-12-15T10:53:44.587Z,16.90
2022-12-15T10:56:04.007Z,23.15
2022-12-15T10:58:21.841Z,24.17
2022-12-15T11:00:31.373Z,24.45
2022-12-15T11:02:40.235Z,30.73
2022-12-15T11:04:59.253Z,29.52
2022-12-15T11:07:17.085Z,58.67
2022-12-15T11:09:31.949Z,41.75
2022-12-15T11:12:05.927Z,35.95
2022-12-15T11:14:17.953Z,36.55
2022-12-15T11:16:24.982Z,25.50
2022-12-15T11:18:42.144Z,25.30
2022-12-15T11:20:57.165Z,26.23
2022-12-15T11:23:10.538Z,35.80
2022-12-15T11:25:26.833Z,54.60
2022-12-15T11:27:38.418Z,53.83
2022-12-15T11:29:58.248Z,62.38
2022-12-15T11:32:07.533Z,44.03
2022-12-15T11:34:18.500Z,42.58
2022-12-15T11:36:39.094Z,34.75
2022-12-15T11:38:53.235Z,40.00
2022-12-15T11:41:04.104Z,41.50
2022-12-15T11:43:43.034Z,34.55
2022-12-15T11:46:01.477Z,35.38
2022-12-15T11:48:18.338Z,41.83
2022-12-15T11:50:33.965Z,42.97
2022-12-15T11:53:01.784Z,36.47
2022-12-15T11:55:27.671Z,37.25
2022-12-15T11:57:55.107Z,32.92
2022-12-15T12:00:09.010Z,31.75
2022-12-15T12:02:44.227Z,29.35
2022-12-15T12:05:04.002Z,32.80
2022-12-15T12:07:19.283Z,33.38
2022-12-15T12:09:33.837Z,32.75
2022-12-15T12:11:48.949Z,30.27
2022-12-15T12:14:13.186Z,31.25
2022-12-15T12:16:35.246Z,28.98
2022-12-15T12:18:50.640Z,29.65
2022-12-15T12:21:03.901Z,30.63
2022-12-15T12:23:18.425Z,29.05
2022-12-15T12:25:28.570Z,30.45
2022-12-15T12:27:43.174Z,30.42
2022-12-15T12:29:54.195Z,30.50
2022-12-15T12:34:19.158Z,29.67
2022-12-15T12:36:26.391Z,30.23
2022-12-15T12:38:40.024Z,31.20
2022-12-15T12:40:56.779Z,30.67
2022-12-15T12:43:11.880Z,31.98
2022-12-15T12:45:22.511Z,31.80
2022-12-15T12:47:33.280Z,29.58
2022-12-15T12:49:45.321Z,32.30
2022-12-15T12:51:59.774Z,35.67
2022-12-15T12:54:13.831Z,34.17
2022-12-15T12:56:42.297Z,33.95
2022-12-15T12:58:51.424Z,33.03
2022-12-15T13:01:19.333Z,34.20
2022-12-15T13:03:27.142Z,32.05
2022-12-15T13:05:36.677Z,33.00
2022-12-15T13:07:44.579Z,33.90
2022-12-15T13:10:06.294Z,32.45
2022-12-15T13:12:52.950Z,35.55
2022-12-15T13:15:03.870Z,39.20
2022-12-15T13:20:27.764Z,38.53
2022-12-15T13:22:37.556Z,35.80
2022-12-15T13:24:50.693Z,35.05
2022-12-15T13:27:08.766Z,42.33
2022-12-15T13:29:20.299Z,38.45
2022-12-15T13:31:43.165Z,40.17
2022-12-15T13:33:58.629Z,43.83
2022-12-15T13:36:06.217Z,48.90
2022-12-15T13:38:21.282Z,47.65
2022-12-15T13:40:38.398Z,53.72
2022-12-15T13:42:56.247Z,55.30
2022-12-15T13:45:40.915Z,50.83
2022-12-15T13:47:57.440Z,48.30
2022-12-15T13:50:10.457Z,45.38
2022-12-15T13:53:08.573Z,43.63
2022-12-15T13:55:00.353Z,43.80
2022-12-15T13:57:10.162Z,43.95
2022-12-15T13:59:38.934Z,42.05
2022-12-15T14:01:53.166Z,43.85
2022-12-15T14:04:09.937Z,41.75
2022-12-15T14:06:19.013Z,40.22
2022-12-15T14:08:27.638Z,41.67
2022-12-15T14:10:45.309Z,41.40
2022-12-15T14:12:58.530Z,38.93
2022-12-15T14:15:07.504Z,40.67
2022-12-15T14:17:20.369Z,40.63
2022-12-15T14:19:36.610Z,41.25
2022-12-15T14:21:52.912Z,40.70
2022-12-15T14:24:37.035Z,39.25
2022-12-15T14:26:32.719Z,38.42
2022-12-15T14:28:41.640Z,38.55
2022-12-15T14:30:50.236Z,39.92
2022-12-15T14:33:02.405Z,39.60
2022-12-15T14:35:17.628Z,37.67
2022-12-15T14:37:25.369Z,37.65
2022-12-15T14:39:37.569Z,38.25
2022-12-15T14:41:49.882Z,39.53
2022-12-15T14:44:36.559Z,43.20
2022-12-15T14:46:30.427Z,42.53
2022-12-15T14:48:42.013Z,43.53
2022-12-15T14:51:13.788Z,40.92
2022-12-15T14:53:23.530Z,38.60
2022-12-15T14:55:38.033Z,41.08
2022-12-15T14:57:48.135Z,42.85
2022-12-15T14:59:56.086Z,41.17
2022-12-15T15:02:14.543Z,38.05
2022-12-15T15:03:05.364Z,40.28
2022-12-15T15:03:06.721Z,13.18
2022-12-15T15:04:30.260Z,43.78
2022-12-15T15:06:40.776Z,47.55
2022-12-15T15:08:52.510Z,48.35
2022-12-15T15:11:02.252Z,47.22
2022-12-15T15:13:09.738Z,40.70
2022-12-15T15:15:20.775Z,45.17
2022-12-15T15:17:31.782Z,45.53
2022-12-15T15:19:42.038Z,44.22
2022-12-15T15:21:51.575Z,41.70
2022-12-15T15:24:07.048Z,43.88
2022-12-15T15:26:19.658Z,47.60
2022-12-15T15:28:29.164Z,45.13
2022-12-15T15:30:48.293Z,42.60
2022-12-15T15:32:58.507Z,42.83
2022-12-15T15:35:05.845Z,38.95
2022-12-15T15:37:20.400Z,39.40
2022-12-15T15:39:27.784Z,40.75
2022-12-15T15:41:35.942Z,41.15
2022-12-15T15:43:43.303Z,44.60
2022-12-15T15:45:51.300Z,46.00
2022-12-15T15:47:58.866Z,46.05
2022-12-15T15:50:06.152Z,46.13
2022-12-15T15:52:16.556Z,46.17
2022-12-15T15:54:28.294Z,45.67
2022-12-15T15:56:36.039Z,44.75
2022-12-15T15:58:43.990Z,44.42
2022-12-15T16:00:50.965Z,44.47
2022-12-15T16:02:58.277Z,45.53
2022-12-15T16:05:05.842Z,47.55
2022-12-15T16:07:23.415Z,45.90
2022-12-15T16:09:30.398Z,98.05
2022-12-15T16:11:39.010Z,125.13
2022-12-15T16:13:46.191Z,67.50
2022-12-15T16:15:53.799Z,49.60
2022-12-15T16:18:01.375Z,52.08
2022-12-15T16:20:09.731Z,49.33
2022-12-15T16:22:22.190Z,50.72
2022-12-15T16:24:29.318Z,51.00
2022-12-15T16:26:38.241Z,52.63
2022-12-15T16:28:45.780Z,52.63
2022-12-15T16:30:53.290Z,51.00
2022-12-15T16:33:00.707Z,53.15
2022-12-15T16:35:08.969Z,55.08
2022-12-15T16:37:28.587Z,58.10
2022-12-15T16:39:36.945Z,56.13
2022-12-15T16:41:44.179Z,56.15
2022-12-15T16:43:51.104Z,56.88
2022-12-15T16:45:58.926Z,66.20
2022-12-15T16:48:05.942Z,71.93
2022-12-15T16:50:17.667Z,73.53
2022-12-15T16:52:26.434Z,69.68
2022-12-15T16:54:35.203Z,71.80
2022-12-15T16:56:43.618Z,70.65
2022-12-15T16:58:57.463Z,70.45
2022-12-15T17:01:16.928Z,68.75
2022-12-15T17:03:27.741Z,68.85
2022-12-15T17:05:36.508Z,68.55
2022-12-15T17:07:45.940Z,68.90
2022-12-15T17:09:53.792Z,65.93
2022-12-15T17:12:03.324Z,64.03
2022-12-15T17:14:12.401Z,68.57
2022-12-15T17:16:20.270Z,71.05
2022-12-15T17:18:27.378Z,73.43
2022-12-15T17:20:35.226Z,73.60
2022-12-15T17:22:43.993Z,75.25
2022-12-15T17:24:53.074Z,75.50
2022-12-15T17:27:00.140Z,74.22
2022-12-15T17:29:17.509Z,75.32
2022-12-15T17:31:30.314Z,71.10
2022-12-15T17:33:41.865Z,64.38
2022-12-15T17:35:49.714Z,65.95
2022-12-15T17:38:00.787Z,64.40
2022-12-15T17:40:17.282Z,63.50
2022-12-15T17:42:24.985Z,67.53
2022-12-15T17:44:35.020Z,71.78
2022-12-15T17:46:43.642Z,79.15
2022-12-15T17:48:51.240Z,74.80
2022-12-15T17:50:58.453Z,74.47
2022-12-15T17:53:08.312Z,73.13
2022-12-15T17:55:30.349Z,74.50
2022-12-15T17:57:41.827Z,66.78
2022-12-15T17:59:49.158Z,62.78
2022-12-15T18:01:57.945Z,60.80
2022-12-15T18:04:05.298Z,63.75
2022-12-15T18:06:17.448Z,62.72
2022-12-15T18:08:27.654Z,67.07
2022-12-15T18:10:37.561Z,65.82
2022-12-15T18:12:44.843Z,70.20
2022-12-15T18:14:52.136Z,61.22
2022-12-15T18:16:59.154Z,62.95
2022-12-15T18:19:06.116Z,63.67
2022-12-15T18:21:17.462Z,67.65
2022-12-15T18:23:27.203Z,68.05
2022-12-15T18:25:34.380Z,67.10
2022-12-15T18:27:41.631Z,67.70
2022-12-15T18:29:48.747Z,64.55
2022-12-15T18:31:55.653Z,64.82
2022-12-15T18:34:05.053Z,68.85
2022-12-15T18:36:13.351Z,66.70
2022-12-15T18:38:21.622Z,63.47
2022-12-15T18:40:32.949Z,61.88
2022-12-15T18:42:40.539Z,60.45
2022-12-15T18:44:51.728Z,60.85
2022-12-15T18:46:58.685Z,57.97
2022-12-15T18:49:05.616Z,59.15
2022-12-15T18:51:19.594Z,57.17
2022-12-15T18:53:30.161Z,53.67
2022-12-15T18:55:39.143Z,54.03
2022-12-15T18:57:46.682Z,56.60
2022-12-15T18:59:53.609Z,58.42
2022-12-15T19:02:01.278Z,58.45
2022-12-15T19:04:09.152Z,55.83
2022-12-15T19:06:26.312Z,56.60
2022-12-15T19:08:37.130Z,55.88
2022-12-15T19:10:52.350Z,53.75
2022-12-15T19:13:00.147Z,54.22
2022-12-15T19:15:09.993Z,55.83
2022-12-15T19:17:34.990Z,55.33
2022-12-15T19:20:01.268Z,54.25
2022-12-15T19:22:33.008Z,55.42
2022-12-15T19:24:58.078Z,54.17
2022-12-15T19:27:12.069Z,54.45
2022-12-15T19:29:22.374Z,54.42
2022-12-15T19:31:29.611Z,56.00
2022-12-15T19:33:36.585Z,55.47
2022-12-15T19:35:45.965Z,54.40
2022-12-15T19:37:56.023Z,54.85
2022-12-15T19:40:04.222Z,54.70
2022-12-15T19:42:22.513Z,56.13
2022-12-15T19:44:29.846Z,56.42
2022-12-15T19:46:36.771Z,52.60
2022-12-15T19:48:44.414Z,51.40
2022-12-15T19:50:54.903Z,55.10
2022-12-15T19:53:03.999Z,53.47
2022-12-15T19:55:16.508Z,54.40
2022-12-15T19:57:25.792Z,54.65
2022-12-15T19:59:32.764Z,55.05
2022-12-15T20:01:40.346Z,51.55
2022-12-15T20:03:48.292Z,51.90
2022-12-15T20:05:57.229Z,52.83
2022-12-15T20:08:04.204Z,52.38
2022-12-15T20:10:24.436Z,52.08
2022-12-15T20:12:36.691Z,55.75
2022-12-15T20:14:43.925Z,55.97
2022-12-15T20:16:51.327Z,59.75
2022-12-15T20:18:59.316Z,59.55
2022-12-15T20:21:06.390Z,58.30
2022-12-15T20:23:18.540Z,58.38
2022-12-15T20:25:29.203Z,57.88
2022-12-15T20:27:38.278Z,56.60
2022-12-15T20:29:45.253Z,57.58
2022-12-15T20:31:52.657Z,53.28
2022-12-15T20:33:59.617Z,55.72
2022-12-15T20:36:07.311Z,56.35
2022-12-15T20:38:28.879Z,56.83
2022-12-15T20:40:36.061Z,56.67
2022-12-15T20:42:44.783Z,58.83
2022-12-15T20:44:52.163Z,57.55
2022-12-15T20:47:01.445Z,52.20
2022-12-15T20:49:16.768Z,55.92
2022-12-15T20:51:27.243Z,55.45
2022-12-15T20:53:34.763Z,55.60
2022-12-15T20:55:41.999Z,53.80
2022-12-15T20:57:51.125Z,56.05
2022-12-15T20:59:58.358Z,53.45
2022-12-15T21:02:06.341Z,55.95
2022-12-15T21:04:27.057Z,54.80
2022-12-15T21:06:34.599Z,56.30
2022-12-15T21:08:41.627Z,54.40
2022-12-15T21:10:49.676Z,55.95
2022-12-15T21:12:58.548Z,55.83
2022-12-15T21:15:06.040Z,54.88
2022-12-15T21:17:17.039Z,56.88
2022-12-15T21:19:24.750Z,54.38
2022-12-15T21:21:33.367Z,52.80
2022-12-15T21:23:42.959Z,51.30
2022-12-15T21:25:50.434Z,49.35
2022-12-15T21:28:00.402Z,50.13
2022-12-15T21:30:16.635Z,52.13
2022-12-15T21:32:24.125Z,51.75
2022-12-15T21:34:31.049Z,53.47
2022-12-15T21:36:38.588Z,52.22
2022-12-15T21:38:47.458Z,54.38
2022-12-15T21:40:59.265Z,50.92
2022-12-15T21:45:20.729Z,53.50
2022-12-15T21:47:49.363Z,51.70
2022-12-15T21:49:55.244Z,54.17
2022-12-15T21:52:03.677Z,51.92
2022-12-15T21:54:20.028Z,52.47
2022-12-15T21:56:26.952Z,51.90
2022-12-15T21:58:36.192Z,54.00
2022-12-15T22:00:45.690Z,51.63
2022-12-15T22:02:54.094Z,53.78
2022-12-15T22:05:01.617Z,54.58
2022-12-15T22:07:13.606Z,52.30
2022-12-15T22:09:22.222Z,54.03
2022-12-15T22:11:31.096Z,55.05
2022-12-15T22:13:39.810Z,53.30
2022-12-15T22:15:47.409Z,54.65
2022-12-15T22:17:54.378Z,56.03
2022-12-15T22:20:01.721Z,51.28
2022-12-15T22:22:08.700Z,52.63
2022-12-15T22:24:16.434Z,53.28
2022-12-15T22:26:26.073Z,52.35
2022-12-15T22:28:33.740Z,51.53
2022-12-15T22:30:42.612Z,51.05
2022-12-15T22:32:50.330Z,49.53
2022-12-15T22:34:57.717Z,49.70
2022-12-15T22:37:04.950Z,51.33
2022-12-15T22:39:12.187Z,51.67
2022-12-15T22:41:23.641Z,54.25
2022-12-15T22:43:37.145Z,52.47
2022-12-15T22:45:46.118Z,50.17
2022-12-15T22:47:55.390Z,48.20
2022-12-15T22:50:03.250Z,50.45
2022-12-15T22:52:19.038Z,52.50
2022-12-15T22:54:28.463Z,55.60
2022-12-15T22:56:40.355Z,56.80
2022-12-15T22:58:50.558Z,58.67
2022-12-15T23:01:03.119Z,56.25
2022-12-15T23:03:12.958Z,55.00
2022-12-15T23:05:22.600Z,51.95
2022-12-15T23:07:30.752Z,54.55
2022-12-15T23:09:37.678Z,54.88
2022-12-15T23:11:43.581Z,55.33
2022-12-15T23:13:50.504Z,54.53
2022-12-15T23:16:16.863Z,53.90
2022-12-15T23:18:23.811Z,52.30
2022-12-15T23:20:31.352Z,55.45
2022-12-15T23:22:38.276Z,56.72
2022-12-15T23:24:45.408Z,57.00
2022-12-15T23:26:52.332Z,61.85
2022-12-15T23:28:59.617Z,59.88
2022-12-15T23:31:09.342Z,57.80
2022-12-15T23:33:16.694Z,60.42
2022-12-15T23:35:23.674Z,58.83
2022-12-15T23:37:31.004Z,63.30
2022-12-15T23:39:37.880Z,65.82
2022-12-15T23:41:45.265Z,65.75
2022-12-15T23:43:52.810Z,66.97
2022-12-15T23:46:01.984Z,66.72
2022-12-15T23:48:11.162Z,66.63
2022-12-15T23:50:18.858Z,69.15
2022-12-15T23:52:25.886Z,73.97
2022-12-15T23:54:33.117Z,70.22
2022-12-15T23:56:42.039Z,67.38
2022-12-15T23:58:50.346Z,68.82
